TAP1452 LPPT-GMMX
Flight info
| Callsign | TAP1452 |
|---|---|
| Flight time | 1h 13m |
| Altitude | 37000 |
| Route | DUZOP DCT AMSEL UR722 MABAP |
| Aircraft | A320/M-SDE3FGHIRWY/LB1 |
Departure
| Time | 2026-04-28 12:11 |
|---|---|
| Airport | Lisbon Humberto Delgado Airport (LPPT) |
Arrival
| Time | 2026-04-28 13:24 |
|---|---|
| Airport | Marrakesh Menara Airport (GMMX) |
| Time | Latitude | Longitude | Altitude | Speed | Heading |
|---|---|---|---|---|---|
| 2026-04-28 11:46 | 38.76564 | -9.13396 | 350 ft | 0 kts | 73° |
| 2026-04-28 12:02 | 38.76563 | -9.13401 | 345 ft | 3 kts | 73° |
| 2026-04-28 12:02 | 38.76554 | -9.13429 | 352 ft | 3 kts | 53° |
| 2026-04-28 12:03 | 38.76538 | -9.13448 | 354 ft | 3 kts | 8° |
| 2026-04-28 12:03 | 38.76528 | -9.13448 | 353 ft | 0 kts | 344° |
| 2026-04-28 12:06 | 38.76533 | -9.13450 | 354 ft | 3 kts | 344° |
| 2026-04-28 12:06 | 38.76581 | -9.13468 | 346 ft | 11 kts | 343° |
| 2026-04-28 12:07 | 38.76645 | -9.13518 | 351 ft | 11 kts | 290° |
| 2026-04-28 12:07 | 38.76634 | -9.13611 | 345 ft | 14 kts | 258° |
| 2026-04-28 12:07 | 38.76608 | -9.13765 | 346 ft | 15 kts | 260° |
| 2026-04-28 12:07 | 38.76588 | -9.13890 | 346 ft | 14 kts | 258° |
| 2026-04-28 12:08 | 38.76566 | -9.13999 | 352 ft | 12 kts | 242° |
| 2026-04-28 12:08 | 38.76519 | -9.14071 | 347 ft | 9 kts | 228° |
| 2026-04-28 12:08 | 38.76494 | -9.14164 | 345 ft | 13 kts | 276° |
| 2026-04-28 12:08 | 38.76522 | -9.14256 | 338 ft | 10 kts | 292° |
| 2026-04-28 12:09 | 38.76539 | -9.14309 | 334 ft | 0 kts | 293° |
| 2026-04-28 12:09 | 38.76539 | -9.14310 | 334 ft | 1 kts | 293° |
| 2026-04-28 12:09 | 38.76549 | -9.14337 | 333 ft | 9 kts | 293° |
| 2026-04-28 12:09 | 38.76583 | -9.14405 | 333 ft | 8 kts | 328° |
| 2026-04-28 12:10 | 38.76636 | -9.14393 | 332 ft | 12 kts | 24° |
| 2026-04-28 12:10 | 38.76940 | -9.14228 | 347 ft | 90 kts | 22° |
| 2026-04-28 12:10 | 38.77757 | -9.13794 | 364 ft | 161 kts | 22° |
| 2026-04-28 12:10 | 38.78863 | -9.13171 | 955 ft | 180 kts | 25° |
| 2026-04-28 12:11 | 38.80033 | -9.12529 | 1846 ft | 185 kts | 22° |
| 2026-04-28 12:11 | 38.81293 | -9.11855 | 2169 ft | 208 kts | 24° |
| 2026-04-28 12:11 | 38.82611 | -9.10892 | 2518 ft | 228 kts | 33° |
| 2026-04-28 12:11 | 38.83773 | -9.09374 | 2897 ft | 253 kts | 63° |
| 2026-04-28 12:12 | 38.84131 | -9.07131 | 3492 ft | 266 kts | 98° |
| 2026-04-28 12:12 | 38.83422 | -9.04959 | 4312 ft | 270 kts | 132° |
| 2026-04-28 12:12 | 38.81873 | -9.03629 | 5162 ft | 273 kts | 159° |
| 2026-04-28 12:12 | 38.80075 | -9.02805 | 6046 ft | 276 kts | 162° |
| 2026-04-28 12:13 | 38.78239 | -9.02050 | 6898 ft | 279 kts | 163° |
| 2026-04-28 12:13 | 38.76372 | -9.01306 | 7752 ft | 281 kts | 163° |
| 2026-04-28 12:13 | 38.74499 | -9.00556 | 8614 ft | 284 kts | 163° |
| 2026-04-28 12:13 | 38.72609 | -8.99788 | 9471 ft | 286 kts | 162° |
| 2026-04-28 12:14 | 38.70697 | -8.99003 | 10239 ft | 293 kts | 162° |
| 2026-04-28 12:14 | 38.68676 | -8.98167 | 10497 ft | 317 kts | 162° |
| 2026-04-28 12:14 | 38.66520 | -8.97269 | 10903 ft | 332 kts | 162° |
| 2026-04-28 12:14 | 38.64300 | -8.96337 | 11580 ft | 338 kts | 162° |
| 2026-04-28 12:15 | 38.62058 | -8.95392 | 12334 ft | 341 kts | 162° |
| 2026-04-28 12:15 | 38.59793 | -8.94440 | 13077 ft | 344 kts | 162° |
| 2026-04-28 12:15 | 38.57508 | -8.93481 | 13790 ft | 348 kts | 162° |
| 2026-04-28 12:15 | 38.55199 | -8.92513 | 14435 ft | 351 kts | 162° |
| 2026-04-28 12:16 | 38.52869 | -8.91541 | 15079 ft | 354 kts | 162° |
| 2026-04-28 12:16 | 38.50524 | -8.90564 | 15732 ft | 356 kts | 162° |
| 2026-04-28 12:16 | 38.48152 | -8.89577 | 16368 ft | 359 kts | 162° |
| 2026-04-28 12:16 | 38.45767 | -8.88583 | 17008 ft | 362 kts | 162° |
| 2026-04-28 12:17 | 38.43358 | -8.87581 | 17627 ft | 366 kts | 162° |
| 2026-04-28 12:17 | 38.40930 | -8.86569 | 18233 ft | 369 kts | 162° |
| 2026-04-28 12:17 | 38.38485 | -8.85553 | 18768 ft | 371 kts | 162° |
| 2026-04-28 12:17 | 38.36021 | -8.84530 | 19305 ft | 374 kts | 162° |
| 2026-04-28 12:18 | 38.33540 | -8.83500 | 19840 ft | 376 kts | 162° |
| 2026-04-28 12:18 | 38.31045 | -8.82461 | 20355 ft | 378 kts | 162° |
| 2026-04-28 12:18 | 38.28534 | -8.81413 | 20876 ft | 381 kts | 162° |
| 2026-04-28 12:18 | 38.26010 | -8.80362 | 21377 ft | 383 kts | 163° |
| 2026-04-28 12:19 | 38.23462 | -8.79307 | 21880 ft | 386 kts | 163° |
| 2026-04-28 12:19 | 38.20937 | -8.78261 | 22359 ft | 388 kts | 163° |
| 2026-04-28 12:19 | 38.18360 | -8.77195 | 22853 ft | 391 kts | 163° |
| 2026-04-28 12:19 | 38.15757 | -8.76124 | 23341 ft | 393 kts | 163° |
| 2026-04-28 12:20 | 38.13147 | -8.75048 | 23768 ft | 396 kts | 163° |
| 2026-04-28 12:20 | 38.10520 | -8.73962 | 24163 ft | 398 kts | 163° |
| 2026-04-28 12:20 | 38.07876 | -8.72874 | 24556 ft | 400 kts | 163° |
| 2026-04-28 12:20 | 38.05220 | -8.71782 | 24946 ft | 402 kts | 163° |
| 2026-04-28 12:21 | 38.02550 | -8.70686 | 25328 ft | 405 kts | 163° |
| 2026-04-28 12:21 | 37.99865 | -8.69584 | 25710 ft | 407 kts | 163° |
| 2026-04-28 12:21 | 37.97166 | -8.68475 | 26083 ft | 409 kts | 163° |
| 2026-04-28 12:21 | 37.94454 | -8.67360 | 26464 ft | 411 kts | 164° |
| 2026-04-28 12:22 | 37.91729 | -8.66240 | 26825 ft | 413 kts | 164° |
| 2026-04-28 12:22 | 37.88986 | -8.65115 | 27194 ft | 415 kts | 164° |
| 2026-04-28 12:22 | 37.86230 | -8.63985 | 27553 ft | 417 kts | 164° |
| 2026-04-28 12:22 | 37.83462 | -8.62853 | 27913 ft | 419 kts | 164° |
| 2026-04-28 12:23 | 37.80682 | -8.61718 | 28265 ft | 421 kts | 164° |
| 2026-04-28 12:23 | 37.77884 | -8.60576 | 28622 ft | 424 kts | 164° |
| 2026-04-28 12:23 | 37.75069 | -8.59423 | 28959 ft | 426 kts | 165° |
| 2026-04-28 12:23 | 37.72244 | -8.58268 | 29288 ft | 428 kts | 165° |
| 2026-04-28 12:24 | 37.69406 | -8.57113 | 29606 ft | 430 kts | 165° |
| 2026-04-28 12:24 | 37.66554 | -8.55954 | 29913 ft | 432 kts | 165° |
| 2026-04-28 12:24 | 37.63685 | -8.54786 | 30182 ft | 433 kts | 165° |
| 2026-04-28 12:24 | 37.60848 | -8.53630 | 30438 ft | 435 kts | 165° |
| 2026-04-28 12:25 | 37.57960 | -8.52455 | 30691 ft | 437 kts | 165° |
| 2026-04-28 12:25 | 37.55061 | -8.51275 | 30944 ft | 438 kts | 165° |
| 2026-04-28 12:25 | 37.52161 | -8.50093 | 31247 ft | 438 kts | 165° |
| 2026-04-28 12:25 | 37.49262 | -8.48913 | 31623 ft | 437 kts | 165° |
| 2026-04-28 12:26 | 37.46371 | -8.47739 | 31990 ft | 436 kts | 165° |
| 2026-04-28 12:26 | 37.43488 | -8.46571 | 32354 ft | 435 kts | 165° |
| 2026-04-28 12:26 | 37.40613 | -8.45407 | 32711 ft | 433 kts | 165° |
| 2026-04-28 12:26 | 37.37747 | -8.44250 | 33068 ft | 432 kts | 165° |
| 2026-04-28 12:27 | 37.34887 | -8.43097 | 33444 ft | 431 kts | 165° |
| 2026-04-28 12:27 | 37.32037 | -8.41950 | 33812 ft | 430 kts | 165° |
| 2026-04-28 12:27 | 37.29189 | -8.40805 | 34134 ft | 429 kts | 165° |
| 2026-04-28 12:27 | 37.26353 | -8.39662 | 34406 ft | 428 kts | 164° |
| 2026-04-28 12:28 | 37.23516 | -8.38515 | 34669 ft | 428 kts | 164° |
| 2026-04-28 12:28 | 37.20679 | -8.37366 | 34912 ft | 428 kts | 164° |
| 2026-04-28 12:28 | 37.17841 | -8.36222 | 35158 ft | 429 kts | 164° |
| 2026-04-28 12:28 | 37.14999 | -8.35081 | 35393 ft | 429 kts | 164° |
| 2026-04-28 12:29 | 37.09315 | -8.32800 | 35833 ft | 429 kts | 164° |
| 2026-04-28 12:29 | 37.06470 | -8.31661 | 36047 ft | 429 kts | 164° |
| 2026-04-28 12:29 | 37.03624 | -8.30523 | 36257 ft | 429 kts | 164° |
| 2026-04-28 12:30 | 37.00778 | -8.29385 | 36457 ft | 430 kts | 164° |
| 2026-04-28 12:30 | 36.97929 | -8.28247 | 36653 ft | 430 kts | 164° |
| 2026-04-28 12:30 | 36.95078 | -8.27109 | 36842 ft | 430 kts | 164° |
| 2026-04-28 12:31 | 36.89375 | -8.24838 | 36900 ft | 429 kts | 164° |
| 2026-04-28 12:31 | 36.83711 | -8.22588 | 36902 ft | 429 kts | 164° |
| 2026-04-28 12:32 | 36.78025 | -8.20332 | 36897 ft | 429 kts | 164° |
| 2026-04-28 12:32 | 36.72341 | -8.18072 | 36897 ft | 428 kts | 164° |
| 2026-04-28 12:33 | 36.66661 | -8.15809 | 36895 ft | 429 kts | 164° |
| 2026-04-28 12:33 | 36.60972 | -8.13555 | 36890 ft | 428 kts | 164° |
| 2026-04-28 12:34 | 36.55291 | -8.11311 | 36889 ft | 428 kts | 164° |
| 2026-04-28 12:34 | 36.49644 | -8.09093 | 36882 ft | 428 kts | 164° |
| 2026-04-28 12:35 | 36.43961 | -8.06856 | 36879 ft | 428 kts | 164° |
| 2026-04-28 12:35 | 36.38280 | -8.04609 | 36877 ft | 428 kts | 164° |
| 2026-04-28 12:36 | 36.32601 | -8.02373 | 36880 ft | 428 kts | 164° |
| 2026-04-28 12:36 | 36.26921 | -8.00143 | 36871 ft | 428 kts | 164° |
| 2026-04-28 12:37 | 36.21244 | -7.97920 | 36866 ft | 428 kts | 164° |
| 2026-04-28 12:37 | 36.15564 | -7.95705 | 36865 ft | 428 kts | 164° |
| 2026-04-28 12:38 | 36.10847 | -7.93861 | 36866 ft | 428 kts | 164° |
| 2026-04-28 12:38 | 36.05162 | -7.91639 | 36870 ft | 428 kts | 164° |
| 2026-04-28 12:39 | 35.99472 | -7.89422 | 36877 ft | 428 kts | 164° |
| 2026-04-28 12:39 | 35.93657 | -7.88044 | 36869 ft | 425 kts | 177° |
| 2026-04-28 12:40 | 35.87750 | -7.87522 | 36867 ft | 426 kts | 177° |
| 2026-04-28 12:40 | 35.81837 | -7.86995 | 36869 ft | 426 kts | 177° |
| 2026-04-28 12:41 | 35.75917 | -7.86457 | 36875 ft | 426 kts | 177° |
| 2026-04-28 12:41 | 35.69998 | -7.85918 | 36875 ft | 426 kts | 177° |
| 2026-04-28 12:42 | 35.64074 | -7.85375 | 36876 ft | 427 kts | 177° |
| 2026-04-28 12:42 | 35.58152 | -7.84845 | 36883 ft | 427 kts | 177° |
| 2026-04-28 12:43 | 35.52266 | -7.84312 | 36882 ft | 427 kts | 177° |
| 2026-04-28 12:43 | 35.46340 | -7.83775 | 36885 ft | 427 kts | 177° |
| 2026-04-28 12:44 | 35.40413 | -7.83246 | 36890 ft | 427 kts | 177° |
| 2026-04-28 12:44 | 35.34480 | -7.82739 | 36887 ft | 427 kts | 177° |
| 2026-04-28 12:45 | 35.28547 | -7.82242 | 36890 ft | 428 kts | 177° |
| 2026-04-28 12:45 | 35.22610 | -7.81745 | 36892 ft | 428 kts | 177° |
| 2026-04-28 12:46 | 35.16668 | -7.81239 | 36895 ft | 428 kts | 177° |
| 2026-04-28 12:46 | 35.10715 | -7.80735 | 36900 ft | 428 kts | 177° |
| 2026-04-28 12:47 | 35.04767 | -7.80250 | 36903 ft | 429 kts | 177° |
| 2026-04-28 12:47 | 34.98811 | -7.79752 | 36905 ft | 429 kts | 177° |
| 2026-04-28 12:48 | 34.92850 | -7.79251 | 36906 ft | 429 kts | 177° |
| 2026-04-28 12:48 | 34.86928 | -7.78755 | 36910 ft | 429 kts | 177° |
| 2026-04-28 12:49 | 34.80967 | -7.78260 | 36910 ft | 430 kts | 177° |
| 2026-04-28 12:49 | 34.74991 | -7.77762 | 36917 ft | 430 kts | 177° |
| 2026-04-28 12:50 | 34.69010 | -7.77299 | 36920 ft | 430 kts | 178° |
| 2026-04-28 12:50 | 34.63033 | -7.76898 | 36920 ft | 430 kts | 178° |
| 2026-04-28 12:51 | 34.57052 | -7.76495 | 36925 ft | 430 kts | 178° |
| 2026-04-28 12:51 | 34.51101 | -7.76083 | 36925 ft | 431 kts | 178° |
| 2026-04-28 12:52 | 34.45115 | -7.75660 | 36924 ft | 431 kts | 178° |
| 2026-04-28 12:52 | 34.39126 | -7.75244 | 36926 ft | 431 kts | 178° |
| 2026-04-28 12:53 | 34.33143 | -7.74832 | 36924 ft | 431 kts | 178° |
| 2026-04-28 12:53 | 34.27149 | -7.74421 | 36927 ft | 431 kts | 178° |
| 2026-04-28 12:54 | 34.21200 | -7.74008 | 36927 ft | 431 kts | 178° |
| 2026-04-28 12:54 | 34.15198 | -7.73563 | 36930 ft | 432 kts | 178° |
| 2026-04-28 12:55 | 34.09205 | -7.72999 | 36931 ft | 432 kts | 177° |
| 2026-04-28 12:55 | 34.03210 | -7.72408 | 36930 ft | 432 kts | 177° |
| 2026-04-28 12:56 | 33.97207 | -7.71839 | 36933 ft | 432 kts | 178° |
| 2026-04-28 12:56 | 33.91196 | -7.71285 | 36935 ft | 433 kts | 178° |
| 2026-04-28 12:57 | 33.85225 | -7.70744 | 36932 ft | 433 kts | 178° |
| 2026-04-28 12:57 | 33.79206 | -7.70191 | 36935 ft | 434 kts | 178° |
| 2026-04-28 12:58 | 33.73184 | -7.69636 | 36930 ft | 434 kts | 178° |
| 2026-04-28 12:58 | 33.67160 | -7.69085 | 36927 ft | 434 kts | 178° |
| 2026-04-28 12:59 | 33.61139 | -7.68535 | 36925 ft | 434 kts | 178° |
| 2026-04-28 12:59 | 33.55118 | -7.68157 | 36917 ft | 431 kts | 186° |
| 2026-04-28 13:00 | 33.49343 | -7.69734 | 36914 ft | 425 kts | 205° |
| 2026-04-28 13:00 | 33.44129 | -7.73047 | 36915 ft | 424 kts | 211° |
| 2026-04-28 13:01 | 33.38855 | -7.76220 | 36914 ft | 427 kts | 199° |
| 2026-04-28 13:01 | 33.33193 | -7.78220 | 36910 ft | 427 kts | 198° |
| 2026-04-28 13:02 | 33.27479 | -7.80196 | 36918 ft | 428 kts | 199° |
| 2026-04-28 13:02 | 33.21763 | -7.82177 | 36927 ft | 428 kts | 199° |
| 2026-04-28 13:03 | 33.16052 | -7.84167 | 36812 ft | 428 kts | 199° |
| 2026-04-28 13:03 | 33.13192 | -7.85159 | 36539 ft | 427 kts | 199° |
| 2026-04-28 13:03 | 33.10334 | -7.86146 | 35873 ft | 429 kts | 199° |
| 2026-04-28 13:03 | 33.07461 | -7.87138 | 35122 ft | 431 kts | 198° |
| 2026-04-28 13:04 | 33.04570 | -7.88139 | 34313 ft | 435 kts | 198° |
| 2026-04-28 13:04 | 33.01662 | -7.89145 | 33642 ft | 434 kts | 197° |
| 2026-04-28 13:04 | 32.98669 | -7.89747 | 32476 ft | 439 kts | 182° |
| 2026-04-28 13:04 | 32.95624 | -7.89594 | 31283 ft | 438 kts | 179° |
| 2026-04-28 13:05 | 32.92588 | -7.89365 | 30156 ft | 435 kts | 178° |
| 2026-04-28 13:05 | 32.89597 | -7.89131 | 29126 ft | 427 kts | 178° |
| 2026-04-28 13:05 | 32.86650 | -7.88899 | 28073 ft | 421 kts | 178° |
| 2026-04-28 13:05 | 32.83765 | -7.88676 | 27324 ft | 410 kts | 178° |
| 2026-04-28 13:06 | 32.80938 | -7.88462 | 26874 ft | 404 kts | 178° |
| 2026-04-28 13:06 | 32.78151 | -7.88257 | 26402 ft | 398 kts | 178° |
| 2026-04-28 13:06 | 32.75439 | -7.88062 | 25951 ft | 394 kts | 178° |
| 2026-04-28 13:06 | 32.72719 | -7.87867 | 25500 ft | 389 kts | 178° |
| 2026-04-28 13:07 | 32.70034 | -7.87671 | 25047 ft | 384 kts | 178° |
| 2026-04-28 13:07 | 32.67374 | -7.87479 | 24601 ft | 381 kts | 178° |
| 2026-04-28 13:07 | 32.64739 | -7.87285 | 24157 ft | 377 kts | 178° |
| 2026-04-28 13:07 | 32.62131 | -7.87094 | 23702 ft | 374 kts | 178° |
| 2026-04-28 13:08 | 32.59537 | -7.86902 | 23198 ft | 372 kts | 178° |
| 2026-04-28 13:08 | 32.56972 | -7.86711 | 22734 ft | 368 kts | 178° |
| 2026-04-28 13:08 | 32.54431 | -7.86524 | 22284 ft | 364 kts | 178° |
| 2026-04-28 13:08 | 32.51915 | -7.86341 | 21836 ft | 361 kts | 178° |
| 2026-04-28 13:09 | 32.49418 | -7.86161 | 21384 ft | 358 kts | 178° |
| 2026-04-28 13:09 | 32.46937 | -7.85980 | 20934 ft | 356 kts | 178° |
| 2026-04-28 13:09 | 32.44470 | -7.85800 | 20483 ft | 354 kts | 178° |
| 2026-04-28 13:09 | 32.42016 | -7.85622 | 20040 ft | 353 kts | 178° |
| 2026-04-28 13:10 | 32.39569 | -7.85447 | 19592 ft | 351 kts | 178° |
| 2026-04-28 13:10 | 32.37132 | -7.85272 | 19147 ft | 350 kts | 178° |
| 2026-04-28 13:10 | 32.34697 | -7.85096 | 18704 ft | 350 kts | 178° |
| 2026-04-28 13:10 | 32.32271 | -7.84920 | 18266 ft | 349 kts | 178° |
| 2026-04-28 13:11 | 32.29848 | -7.84744 | 17784 ft | 348 kts | 178° |
| 2026-04-28 13:11 | 32.27446 | -7.84566 | 17355 ft | 345 kts | 178° |
| 2026-04-28 13:11 | 32.25088 | -7.84390 | 16934 ft | 343 kts | 178° |
| 2026-04-28 13:11 | 32.22715 | -7.84214 | 16513 ft | 341 kts | 178° |
| 2026-04-28 13:12 | 32.20356 | -7.84043 | 16098 ft | 339 kts | 178° |
| 2026-04-28 13:12 | 32.18007 | -7.83874 | 15682 ft | 337 kts | 178° |
| 2026-04-28 13:12 | 32.15666 | -7.83705 | 15269 ft | 336 kts | 178° |
| 2026-04-28 13:12 | 32.13338 | -7.83537 | 14857 ft | 335 kts | 178° |
| 2026-04-28 13:13 | 32.11016 | -7.83373 | 14440 ft | 334 kts | 178° |
| 2026-04-28 13:13 | 32.08695 | -7.83207 | 14028 ft | 334 kts | 177° |
| 2026-04-28 13:13 | 32.06375 | -7.83040 | 13588 ft | 334 kts | 177° |
| 2026-04-28 13:13 | 32.04064 | -7.82873 | 13158 ft | 331 kts | 177° |
| 2026-04-28 13:14 | 32.01768 | -7.82708 | 12732 ft | 330 kts | 177° |
| 2026-04-28 13:14 | 31.99488 | -7.82543 | 12318 ft | 328 kts | 177° |
| 2026-04-28 13:14 | 31.97214 | -7.82376 | 11889 ft | 326 kts | 177° |
| 2026-04-28 13:14 | 31.94955 | -7.82210 | 11474 ft | 324 kts | 177° |
| 2026-04-28 13:15 | 31.92740 | -7.82050 | 11058 ft | 322 kts | 177° |
| 2026-04-28 13:15 | 31.90505 | -7.81888 | 10626 ft | 321 kts | 176° |
| 2026-04-28 13:15 | 31.88278 | -7.81728 | 10197 ft | 320 kts | 176° |
| 2026-04-28 13:15 | 31.86084 | -7.81570 | 10040 ft | 310 kts | 176° |
| 2026-04-28 13:16 | 31.84211 | -7.81435 | 9929 ft | 301 kts | 176° |
| 2026-04-28 13:16 | 31.82156 | -7.81288 | 9755 ft | 292 kts | 176° |
| 2026-04-28 13:16 | 31.80144 | -7.81144 | 9330 ft | 290 kts | 176° |
| 2026-04-28 13:16 | 31.78130 | -7.80997 | 8942 ft | 289 kts | 176° |
| 2026-04-28 13:17 | 31.76121 | -7.80850 | 8453 ft | 291 kts | 176° |
| 2026-04-28 13:17 | 31.74090 | -7.80705 | 7970 ft | 289 kts | 177° |
| 2026-04-28 13:17 | 31.72124 | -7.80567 | 7587 ft | 277 kts | 177° |
| 2026-04-28 13:17 | 31.70243 | -7.80435 | 7217 ft | 265 kts | 177° |
| 2026-04-28 13:18 | 31.68439 | -7.80305 | 6871 ft | 255 kts | 177° |
| 2026-04-28 13:18 | 31.66719 | -7.80231 | 6533 ft | 245 kts | 185° |
| 2026-04-28 13:18 | 31.65018 | -7.80439 | 6195 ft | 243 kts | 187° |
| 2026-04-28 13:18 | 31.63341 | -7.80644 | 5849 ft | 243 kts | 187° |
| 2026-04-28 13:19 | 31.61685 | -7.80842 | 5503 ft | 240 kts | 187° |
| 2026-04-28 13:19 | 31.60083 | -7.81193 | 5160 ft | 230 kts | 208° |
| 2026-04-28 13:19 | 31.58998 | -7.82462 | 4852 ft | 220 kts | 250° |
| 2026-04-28 13:19 | 31.58840 | -7.84200 | 4563 ft | 212 kts | 274° |
| 2026-04-28 13:20 | 31.58979 | -7.85874 | 4249 ft | 201 kts | 277° |
| 2026-04-28 13:20 | 31.59149 | -7.87459 | 3955 ft | 191 kts | 278° |
| 2026-04-28 13:20 | 31.59311 | -7.88964 | 3706 ft | 181 kts | 277° |
| 2026-04-28 13:20 | 31.59459 | -7.90412 | 3437 ft | 175 kts | 277° |
| 2026-04-28 13:21 | 31.59590 | -7.91750 | 3252 ft | 155 kts | 277° |
| 2026-04-28 13:21 | 31.59707 | -7.92962 | 3185 ft | 146 kts | 276° |
| 2026-04-28 13:21 | 31.59818 | -7.94148 | 2966 ft | 145 kts | 276° |
| 2026-04-28 13:21 | 31.59924 | -7.95316 | 2660 ft | 143 kts | 276° |
| 2026-04-28 13:22 | 31.60048 | -7.96471 | 2384 ft | 142 kts | 278° |
| 2026-04-28 13:22 | 31.60160 | -7.97612 | 2251 ft | 141 kts | 277° |
| 2026-04-28 13:22 | 31.60263 | -7.98758 | 2103 ft | 141 kts | 275° |
| 2026-04-28 13:22 | 31.60369 | -7.99899 | 1949 ft | 140 kts | 276° |
| 2026-04-28 13:23 | 31.60466 | -8.01030 | 1765 ft | 138 kts | 275° |
| 2026-04-28 13:23 | 31.60558 | -8.02151 | 1580 ft | 138 kts | 276° |
| 2026-04-28 13:23 | 31.60647 | -8.03153 | 1544 ft | 101 kts | 276° |
| 2026-04-28 13:23 | 31.60703 | -8.03777 | 1538 ft | 52 kts | 276° |
| 2026-04-28 13:24 | 31.60731 | -8.04076 | 1533 ft | 32 kts | 276° |
| 2026-04-28 13:24 | 31.60748 | -8.04284 | 1538 ft | 21 kts | 274° |
| 2026-04-28 13:24 | 31.60687 | -8.04392 | 1533 ft | 17 kts | 184° |
| 2026-04-28 13:24 | 31.60592 | -8.04394 | 1540 ft | 12 kts | 148° |
| 2026-04-28 13:25 | 31.60575 | -8.04314 | 1548 ft | 10 kts | 95° |
| 2026-04-28 13:25 | 31.60564 | -8.04184 | 1548 ft | 23 kts | 96° |
| 2026-04-28 13:25 | 31.60545 | -8.03978 | 1548 ft | 20 kts | 95° |
| 2026-04-28 13:25 | 31.60529 | -8.03812 | 1548 ft | 20 kts | 95° |
| 2026-04-28 13:26 | 31.60517 | -8.03645 | 1548 ft | 21 kts | 96° |
| 2026-04-28 13:26 | 31.60501 | -8.03478 | 1548 ft | 20 kts | 96° |
| 2026-04-28 13:26 | 31.60487 | -8.03313 | 1548 ft | 16 kts | 95° |
| 2026-04-28 13:26 | 31.60481 | -8.03237 | 1549 ft | 14 kts | 96° |
| 2026-04-28 13:27 | 31.60471 | -8.03135 | 1549 ft | 12 kts | 96° |
| 2026-04-28 13:27 | 31.60463 | -8.03044 | 1549 ft | 13 kts | 96° |
| 2026-04-28 13:27 | 31.60451 | -8.02896 | 1549 ft | 19 kts | 95° |
| 2026-04-28 13:27 | 31.60433 | -8.02691 | 1549 ft | 19 kts | 95° |
| 2026-04-28 13:28 | 31.60426 | -8.02591 | 1549 ft | 18 kts | 95° |
| 2026-04-28 13:28 | 31.60414 | -8.02457 | 1549 ft | 16 kts | 96° |
| 2026-04-28 13:28 | 31.60404 | -8.02337 | 1549 ft | 14 kts | 95° |
| 2026-04-28 13:28 | 31.60393 | -8.02226 | 1549 ft | 14 kts | 99° |
| 2026-04-28 13:29 | 31.60323 | -8.02199 | 1549 ft | 11 kts | 186° |
| 2026-04-28 13:29 | 31.60250 | -8.02208 | 1549 ft | 10 kts | 186° |
| 2026-04-28 13:29 | 31.60190 | -8.02218 | 1549 ft | 7 kts | 206° |
| 2026-04-28 13:29 | 31.60182 | -8.02266 | 1549 ft | 5 kts | 275° |
| 2026-04-28 13:30 | 31.60184 | -8.02298 | 1549 ft | 1 kts | 273° |